메인 페이지
METAR-TAF:

METAR-TAF

공항 :

브뤼셀, 벨기에

브뤼셀 공항

위도: 50-54N, 경도: 004-32E, 고도: 55m

현재 날씨관측

예보는 37분 전, 05:20시(UTC)에 발표되었습니다.
여러 방향의 바람 1kt
온도 0°C
습도 93%
기압 1017 hPa
시정: 2500m
박무

METAR: EBBR 200520Z VRB01KT 2500 BR NSC M00/M01 Q1017 TEMPO 1200 BCFG

시각: 06:57 (05:57 UTC)

예보

예보는 47분 전, 05:10시(UTC)에 발표되었습니다.
예보 대상 시간: 20일 06시부터 21일 12시까지 (UTC)
북동4kt
시정: 4000m
고도 4000ft 상공 구름 조금
박무
확률 30% :
일시적
20일 06시부터 20일 08시까지 (UTC)
시정: 1200m
곳곳에 안개
전환 중
20일 07시부터 20일 09시까지 (UTC)
시정 10km 이상

TAF: EBBR 200510Z 2006/2112 04004KT 4000 BR FEW040 PROB30 TEMPO 2006/2008 1200 BCFG BECMG 2007/2009 9999 NSW

4,000개 이상의 공항 관측 자료 및 예보 (METAR 및 TAF 보고).

지도상에서 검색 가능한 기상관측소가 노란 점과 빨간 점으로 표시되어 있습니다.

기상관측소 명을 보려면 표시 위로 마우스를 이동하세요.

날씨 관측과 예보를 보려면 클릭하세요.

지도 변경 : 확대하려면 엑스 표시가 있는 녹색 버튼, 축소하려면 빼기 표시가 있는 녹색 버튼, 다음 페이지의 지도를 보려면 녹색 화살표를 클릭하세요.


METAR-TAF: